createdAt,value
2019-04-30T00:01:48.527Z,36.77
2019-04-30T00:04:40.417Z,35.13
2019-04-30T00:07:10.149Z,36.30
2019-04-30T00:09:40.642Z,34.92
2019-04-30T00:12:10.203Z,34.20
2019-04-30T00:14:41.362Z,33.45
2019-04-30T00:17:10.738Z,35.50
2019-04-30T00:19:41.448Z,34.92
2019-04-30T00:22:10.772Z,35.43
2019-04-30T00:24:44.268Z,34.63
2019-04-30T00:27:10.929Z,33.78
2019-04-30T00:29:40.190Z,34.45
2019-04-30T00:32:09.391Z,34.93
2019-04-30T00:34:39.480Z,34.60
2019-04-30T00:37:13.965Z,34.48
2019-04-30T00:39:39.687Z,34.15
2019-04-30T00:42:09.110Z,35.92
2019-04-30T00:44:38.315Z,36.63
2019-04-30T00:47:08.456Z,38.10
2019-04-30T00:49:37.653Z,37.78
2019-04-30T00:52:06.835Z,37.63
2019-04-30T00:54:36.016Z,38.40
2019-04-30T00:57:07.653Z,38.80
2019-04-30T00:59:39.865Z,39.18
2019-04-30T01:02:30.800Z,38.75
2019-04-30T01:04:58.334Z,38.83
2019-04-30T01:07:28.193Z,36.98
2019-04-30T01:09:57.374Z,37.00
2019-04-30T01:12:29.649Z,36.65
2019-04-30T01:14:59.038Z,38.60
2019-04-30T01:17:29.952Z,37.38
2019-04-30T01:19:59.287Z,37.80
2019-04-30T01:22:32.783Z,37.70
2019-04-30T01:25:01.351Z,38.20
2019-04-30T01:27:30.723Z,38.05
2019-04-30T01:30:00.096Z,36.93
2019-04-30T01:32:29.400Z,38.00
2019-04-30T01:34:58.959Z,36.90
2019-04-30T01:37:29.624Z,35.73
2019-04-30T01:40:03.083Z,36.00
2019-04-30T01:42:30.204Z,36.50
2019-04-30T01:44:59.382Z,36.20
2019-04-30T01:47:30.798Z,37.17
2019-04-30T01:50:04.895Z,37.13
2019-04-30T01:52:51.058Z,37.80
2019-04-30T01:55:23.404Z,37.63
2019-04-30T01:58:05.918Z,37.45
2019-04-30T02:00:49.320Z,37.30
2019-04-30T02:03:19.354Z,38.75
2019-04-30T02:05:49.844Z,38.45
2019-04-30T02:08:19.589Z,37.17
2019-04-30T02:10:51.216Z,38.92
2019-04-30T02:13:19.734Z,39.75
2019-04-30T02:15:49.309Z,39.00
2019-04-30T02:18:19.693Z,39.05
2019-04-30T02:20:49.733Z,38.80
2019-04-30T02:23:19.722Z,39.63
2019-04-30T02:25:49.118Z,38.08
2019-04-30T02:28:19.075Z,38.33
2019-04-30T02:30:50.381Z,37.55
2019-04-30T02:33:21.021Z,37.48
2019-04-30T02:36:03.259Z,37.60
2019-04-30T02:38:33.711Z,37.90
2019-04-30T02:41:03.762Z,37.67
2019-04-30T02:43:33.870Z,37.73
2019-04-30T02:46:05.017Z,37.88
2019-04-30T02:48:36.339Z,37.25
2019-04-30T02:51:06.459Z,36.23
2019-04-30T02:54:09.911Z,36.85
2019-04-30T02:56:40.238Z,36.42
2019-04-30T02:59:11.284Z,36.60
2019-04-30T03:01:40.690Z,37.78
2019-04-30T03:04:10.245Z,37.48
2019-04-30T03:06:40.247Z,38.63
2019-04-30T03:09:10.601Z,37.93
2019-04-30T03:11:41.039Z,38.63
2019-04-30T03:14:10.916Z,36.08
2019-04-30T03:16:52.530Z,36.73
2019-04-30T03:19:42.604Z,36.73
2019-04-30T03:22:15.499Z,35.03
2019-04-30T03:24:44.787Z,36.87
2019-04-30T03:27:13.968Z,37.78
2019-04-30T03:29:43.134Z,36.42
2019-04-30T03:32:13.765Z,36.58
2019-04-30T03:34:43.245Z,37.03
2019-04-30T03:37:12.406Z,36.80
2019-04-30T03:39:41.556Z,38.30
2019-04-30T03:42:12.323Z,36.90
2019-04-30T03:44:41.535Z,35.60
2019-04-30T03:47:11.186Z,35.80
2019-04-30T03:49:40.547Z,36.73
2019-04-30T03:52:13.106Z,37.23
2019-04-30T03:54:41.080Z,36.83
2019-04-30T03:57:11.374Z,36.73
2019-04-30T03:59:40.675Z,35.48
2019-04-30T04:02:20.836Z,35.48
2019-04-30T04:04:54.298Z,35.05
2019-04-30T04:07:52.929Z,34.27
2019-04-30T04:10:33.279Z,32.58
2019-04-30T04:13:02.429Z,32.40
2019-04-30T04:15:33.077Z,33.58
2019-04-30T04:18:02.312Z,32.55
2019-04-30T04:20:34.164Z,32.38
2019-04-30T04:23:05.186Z,32.67
2019-04-30T04:25:34.481Z,33.45
2019-04-30T04:28:03.777Z,33.35
2019-04-30T04:30:32.935Z,32.73
2019-04-30T04:33:02.549Z,32.00
2019-04-30T04:35:31.703Z,32.05
2019-04-30T04:38:00.968Z,31.25
2019-04-30T04:40:30.462Z,32.35
2019-04-30T04:43:00.245Z,32.75
2019-04-30T04:45:30.610Z,33.47
2019-04-30T04:48:00.352Z,33.15
2019-04-30T04:50:30.189Z,33.80
2019-04-30T04:52:59.815Z,33.60
2019-04-30T04:55:30.174Z,33.25
2019-04-30T04:57:59.914Z,33.43
2019-04-30T05:00:29.539Z,34.67
2019-04-30T05:03:04.426Z,33.23
2019-04-30T05:05:33.665Z,34.08
2019-04-30T05:08:02.831Z,35.15
2019-04-30T05:10:32.013Z,36.10
2019-04-30T05:13:01.757Z,35.43
2019-04-30T05:15:31.013Z,37.45
2019-04-30T05:18:00.172Z,36.53
2019-04-30T05:20:29.382Z,36.73
2019-04-30T05:22:58.643Z,36.25
2019-04-30T05:25:29.394Z,35.63
2019-04-30T05:28:00.148Z,35.98
2019-04-30T05:30:29.647Z,35.80
2019-04-30T05:32:58.954Z,36.45
2019-04-30T05:35:28.422Z,37.00
2019-04-30T05:37:59.330Z,36.10
2019-04-30T05:40:28.796Z,36.17
2019-04-30T05:42:58.125Z,33.67
2019-04-30T05:45:28.947Z,33.57
2019-04-30T05:47:58.751Z,34.00
2019-04-30T05:50:29.747Z,34.65
2019-04-30T05:52:59.234Z,32.95
2019-04-30T05:55:29.434Z,34.10
2019-04-30T05:58:01.397Z,33.42
2019-04-30T06:00:30.641Z,33.45
2019-04-30T06:02:59.930Z,33.15
2019-04-30T06:05:30.462Z,31.97
2019-04-30T06:07:59.715Z,31.77
2019-04-30T06:10:43.284Z,32.25
2019-04-30T06:13:25.488Z,33.18
2019-04-30T06:16:00.700Z,32.45
2019-04-30T06:18:29.884Z,30.70
2019-04-30T06:20:59.543Z,31.07
2019-04-30T06:23:29.419Z,30.55
2019-04-30T06:26:06.899Z,31.20
2019-04-30T06:28:29.884Z,31.82
2019-04-30T06:30:59.188Z,30.82
2019-04-30T06:33:29.108Z,31.73
2019-04-30T06:35:59.041Z,31.07
2019-04-30T06:38:29.196Z,31.07
2019-04-30T06:41:00.681Z,32.25
2019-04-30T06:43:30.117Z,31.02
2019-04-30T06:45:59.290Z,29.20
2019-04-30T06:48:30.136Z,28.50
2019-04-30T06:50:59.682Z,29.18
2019-04-30T06:53:29.336Z,27.62
2019-04-30T06:55:58.996Z,27.60
2019-04-30T06:58:29.178Z,26.68
2019-04-30T07:00:59.589Z,26.40
2019-04-30T07:03:29.154Z,26.20
2019-04-30T07:05:58.687Z,26.37
2019-04-30T07:08:59.694Z,25.35
2019-04-30T07:11:32.875Z,25.62
2019-04-30T07:14:02.065Z,26.60
2019-04-30T07:16:33.369Z,27.17
2019-04-30T07:19:02.818Z,26.42
2019-04-30T07:21:36.436Z,26.30
2019-04-30T07:24:02.954Z,26.55
2019-04-30T07:26:33.359Z,26.70
2019-04-30T07:29:03.714Z,25.43
2019-04-30T07:31:32.870Z,25.70
2019-04-30T07:34:02.288Z,25.55
2019-04-30T07:36:45.942Z,24.60
2019-04-30T07:39:02.398Z,24.30
2019-04-30T07:41:31.617Z,23.62
2019-04-30T07:44:01.073Z,23.90
2019-04-30T07:46:35.197Z,23.98
2019-04-30T07:49:02.001Z,24.45
2019-04-30T07:51:37.127Z,25.88
2019-04-30T07:54:02.150Z,24.32
2019-04-30T07:56:37.269Z,23.70
2019-04-30T07:59:02.845Z,24.32
2019-04-30T08:01:32.249Z,23.70
2019-04-30T08:04:20.411Z,24.00
2019-04-30T08:06:49.997Z,23.27
2019-04-30T08:09:22.095Z,24.25
2019-04-30T08:11:50.171Z,23.98
2019-04-30T08:14:21.108Z,25.35
2019-04-30T08:16:51.095Z,24.82
2019-04-30T08:19:20.408Z,24.63
2019-04-30T08:21:49.554Z,26.37
2019-04-30T08:24:19.350Z,28.50
2019-04-30T08:26:49.378Z,30.15
2019-04-30T08:29:19.496Z,29.65
2019-04-30T08:31:49.038Z,34.35
2019-04-30T08:34:20.123Z,36.50
2019-04-30T08:36:49.330Z,35.45
2019-04-30T08:39:19.756Z,37.42
2019-04-30T08:41:49.360Z,34.18
2019-04-30T08:44:20.813Z,33.35
2019-04-30T08:46:49.534Z,33.88
2019-04-30T08:49:19.452Z,33.33
2019-04-30T08:51:50.786Z,33.92
2019-04-30T08:54:20.536Z,34.87
2019-04-30T08:56:50.357Z,34.67
2019-04-30T08:59:19.747Z,33.55
2019-04-30T09:01:48.908Z,32.10
2019-04-30T09:04:20.001Z,32.23
2019-04-30T09:06:49.608Z,31.77
2019-04-30T09:09:20.790Z,32.73
2019-04-30T09:11:55.414Z,32.38
2019-04-30T09:14:21.052Z,33.00
2019-04-30T09:16:51.316Z,33.30
2019-04-30T09:19:21.339Z,33.35
2019-04-30T09:21:50.915Z,32.25
2019-04-30T09:24:20.092Z,32.83
2019-04-30T09:26:49.430Z,32.70
2019-04-30T09:29:19.208Z,34.18
2019-04-30T09:31:49.348Z,31.85
2019-04-30T09:34:21.122Z,31.75
2019-04-30T09:36:49.776Z,32.75
2019-04-30T09:39:19.957Z,32.08
2019-04-30T09:41:49.882Z,33.00
2019-04-30T09:44:19.518Z,31.80
2019-04-30T09:46:48.987Z,31.12
2019-04-30T09:49:19.446Z,30.72
2019-04-30T09:51:49.828Z,33.73
2019-04-30T09:54:20.255Z,34.25
2019-04-30T09:56:52.617Z,33.07
2019-04-30T09:59:20.715Z,34.73
2019-04-30T10:01:51.706Z,31.50
2019-04-30T10:04:21.658Z,30.25
2019-04-30T10:06:51.408Z,31.43
2019-04-30T10:09:20.789Z,31.17
2019-04-30T10:12:21.143Z,31.15
2019-04-30T10:14:50.503Z,29.65
2019-04-30T10:17:54.069Z,28.53
2019-04-30T10:20:29.664Z,28.50
2019-04-30T10:22:59.639Z,28.37
2019-04-30T10:25:28.800Z,28.32
2019-04-30T10:27:59.789Z,26.52
2019-04-30T10:30:34.686Z,28.23
2019-04-30T10:33:03.936Z,28.77
2019-04-30T10:35:33.159Z,28.83
2019-04-30T10:38:02.574Z,28.65
2019-04-30T10:40:31.834Z,28.07
2019-04-30T10:43:00.995Z,29.20
2019-04-30T10:45:30.343Z,28.80
2019-04-30T10:47:59.626Z,28.47
2019-04-30T10:50:28.800Z,27.87
2019-04-30T10:52:59.116Z,29.63
2019-04-30T10:55:28.678Z,30.62
2019-04-30T10:57:59.444Z,30.43
2019-04-30T11:00:38.926Z,31.07
2019-04-30T11:03:19.260Z,28.90
2019-04-30T11:05:41.278Z,28.40
2019-04-30T11:08:10.607Z,27.17
2019-04-30T11:10:40.081Z,25.77
2019-04-30T11:13:09.284Z,26.50
2019-04-30T11:15:40.084Z,26.00
2019-04-30T11:18:09.587Z,26.17
2019-04-30T11:20:39.736Z,26.40
2019-04-30T11:23:14.495Z,26.12
2019-04-30T11:25:41.521Z,25.88
2019-04-30T11:28:11.785Z,25.85
2019-04-30T11:30:41.367Z,24.80
2019-04-30T11:33:11.259Z,23.98
2019-04-30T11:35:40.534Z,24.85
2019-04-30T11:38:09.722Z,25.40
2019-04-30T11:40:39.931Z,25.77
2019-04-30T11:43:09.648Z,23.57
2019-04-30T11:46:08.977Z,23.22
2019-04-30T11:48:38.746Z,21.73
2019-04-30T11:51:09.457Z,22.20
2019-04-30T11:53:39.070Z,22.32
2019-04-30T11:56:08.373Z,21.05
2019-04-30T11:58:38.884Z,20.53
2019-04-30T12:01:10.069Z,20.93
2019-04-30T12:03:39.449Z,21.07
2019-04-30T12:06:10.156Z,21.65
2019-04-30T12:08:56.262Z,20.68
2019-04-30T12:11:31.024Z,21.65
2019-04-30T12:14:00.231Z,21.70
2019-04-30T12:16:29.418Z,21.25
2019-04-30T12:19:00.654Z,20.52
2019-04-30T12:21:29.690Z,20.72
2019-04-30T12:23:58.915Z,20.62
2019-04-30T12:26:28.886Z,21.00
2019-04-30T12:28:58.178Z,20.10
2019-04-30T12:31:27.373Z,20.60
2019-04-30T12:33:56.542Z,20.40
2019-04-30T12:36:25.722Z,20.40
2019-04-30T12:38:54.912Z,20.20
2019-04-30T12:41:24.124Z,20.15
2019-04-30T12:43:53.599Z,20.05
2019-04-30T12:46:22.747Z,19.90
2019-04-30T12:48:57.140Z,19.60
2019-04-30T12:51:48.805Z,20.35
2019-04-30T12:54:33.448Z,18.25
2019-04-30T12:57:24.775Z,19.10
2019-04-30T12:59:53.938Z,19.75
2019-04-30T13:02:23.177Z,20.48
2019-04-30T13:04:52.379Z,20.35
2019-04-30T13:07:23.305Z,19.50
2019-04-30T13:09:53.448Z,18.75
2019-04-30T13:12:23.666Z,18.92
2019-04-30T13:14:54.820Z,19.62
2019-04-30T13:17:24.248Z,20.05
2019-04-30T13:19:53.439Z,19.07
2019-04-30T13:22:22.797Z,19.37
2019-04-30T13:24:52.460Z,19.17
2019-04-30T13:27:22.547Z,20.43
2019-04-30T13:30:02.498Z,19.52
2019-04-30T13:32:36.022Z,19.87
2019-04-30T13:35:05.710Z,19.32
2019-04-30T13:37:44.143Z,18.95
2019-04-30T13:40:32.020Z,19.95
2019-04-30T13:43:02.114Z,20.62
2019-04-30T13:45:31.330Z,19.80
2019-04-30T13:48:00.606Z,19.57
2019-04-30T13:50:31.311Z,18.82
2019-04-30T13:53:00.502Z,19.15
2019-04-30T13:55:42.700Z,19.42
2019-04-30T13:58:02.221Z,19.15
2019-04-30T14:00:31.522Z,20.10
2019-04-30T14:03:10.775Z,19.57
2019-04-30T14:05:39.959Z,18.27
2019-04-30T14:08:17.763Z,19.70
2019-04-30T14:10:49.226Z,21.07
2019-04-30T14:13:18.161Z,19.82
2019-04-30T14:15:48.165Z,19.23
2019-04-30T14:18:27.945Z,19.67
2019-04-30T14:20:48.431Z,20.48
2019-04-30T14:23:19.582Z,20.08
2019-04-30T14:25:56.441Z,18.07
2019-04-30T14:28:19.845Z,17.13
2019-04-30T14:30:49.150Z,17.50
2019-04-30T14:33:25.914Z,17.35
2019-04-30T14:35:49.818Z,19.48
2019-04-30T14:38:19.130Z,19.05
2019-04-30T14:40:50.642Z,17.07
2019-04-30T14:43:30.028Z,16.37
2019-04-30T14:46:24.696Z,18.65
2019-04-30T14:48:59.965Z,19.25
2019-04-30T14:51:28.031Z,18.92
2019-04-30T14:54:22.280Z,19.02
2019-04-30T15:00:06.057Z,18.98
2019-04-30T15:02:42.262Z,19.87
2019-04-30T15:05:11.762Z,19.98
2019-04-30T15:07:40.976Z,19.70
2019-04-30T15:10:10.179Z,18.55
2019-04-30T15:12:39.378Z,18.00
2019-04-30T15:15:09.231Z,19.00
2019-04-30T15:17:39.278Z,17.90
2019-04-30T15:20:10.105Z,18.73
2019-04-30T15:22:41.586Z,19.92
2019-04-30T15:25:12.272Z,20.05
2019-04-30T15:27:45.281Z,19.32
2019-04-30T15:30:13.323Z,19.20
2019-04-30T15:32:44.291Z,19.52
2019-04-30T15:35:13.530Z,19.45
2019-04-30T15:37:44.399Z,20.65
2019-04-30T15:40:13.670Z,21.23
2019-04-30T15:42:44.637Z,20.57
2019-04-30T15:45:15.894Z,20.57
2019-04-30T15:47:45.092Z,19.13
2019-04-30T15:50:14.587Z,20.20
2019-04-30T15:52:43.754Z,19.03
2019-04-30T15:55:13.060Z,18.13
2019-04-30T15:57:59.303Z,19.33
2019-04-30T16:00:31.348Z,18.60
2019-04-30T16:03:09.547Z,18.93
2019-04-30T16:05:41.637Z,19.73
2019-04-30T16:08:33.610Z,19.00
2019-04-30T16:11:20.331Z,18.47
2019-04-30T16:14:20.891Z,18.90
2019-04-30T16:17:09.170Z,19.00
2019-04-30T16:19:38.588Z,18.13
2019-04-30T16:22:07.914Z,19.37
2019-04-30T16:24:38.696Z,19.80
2019-04-30T16:27:09.270Z,18.90
2019-04-30T16:29:40.672Z,18.73
2019-04-30T16:32:09.489Z,18.43
2019-04-30T16:34:38.998Z,17.97
2019-04-30T16:37:08.243Z,19.33
2019-04-30T16:39:37.396Z,19.00
2019-04-30T16:42:06.632Z,18.93
2019-04-30T16:44:35.801Z,18.80
2019-04-30T16:47:13.444Z,19.20
2019-04-30T16:49:35.871Z,19.10
2019-04-30T16:52:05.058Z,19.70
2019-04-30T16:54:34.277Z,20.67
2019-04-30T16:57:06.737Z,19.77
2019-04-30T16:59:39.217Z,20.00
2019-04-30T17:02:09.321Z,20.27
2019-04-30T17:04:55.581Z,22.10
2019-04-30T17:07:38.763Z,20.93
2019-04-30T17:10:18.853Z,20.50
2019-04-30T17:13:01.007Z,20.37
2019-04-30T17:15:31.329Z,20.83
2019-04-30T17:18:00.500Z,19.73
2019-04-30T17:20:29.715Z,21.03
2019-04-30T17:22:59.594Z,19.93
2019-04-30T17:25:28.830Z,19.63
2019-04-30T17:28:01.084Z,18.50
2019-04-30T17:30:29.419Z,19.07
2019-04-30T17:32:59.726Z,18.60
2019-04-30T17:35:29.041Z,18.37
2019-04-30T17:37:58.352Z,18.37
2019-04-30T17:40:29.157Z,18.93
2019-04-30T17:42:58.386Z,17.90
2019-04-30T17:45:29.210Z,18.43
2019-04-30T17:47:58.610Z,18.67
2019-04-30T17:50:29.603Z,17.97
2019-04-30T17:53:00.739Z,18.23
2019-04-30T17:55:30.176Z,17.60
2019-04-30T17:57:59.356Z,17.23
2019-04-30T18:00:30.430Z,20.07
2019-04-30T18:02:59.646Z,19.00
2019-04-30T18:05:29.288Z,18.50
2019-04-30T18:07:58.797Z,19.40
2019-04-30T18:10:28.463Z,19.53
2019-04-30T18:12:57.639Z,19.20
2019-04-30T18:15:28.854Z,18.10
2019-04-30T18:18:07.140Z,19.17
2019-04-30T18:20:41.596Z,20.03
2019-04-30T18:23:40.077Z,20.50
2019-04-30T18:26:13.901Z,20.17
2019-04-30T18:28:44.653Z,19.87
2019-04-30T18:31:13.817Z,20.93
2019-04-30T18:33:42.997Z,20.23
2019-04-30T18:36:12.193Z,21.23
2019-04-30T18:38:41.350Z,21.63
2019-04-30T18:41:10.567Z,20.53
2019-04-30T18:43:40.550Z,21.50
2019-04-30T18:46:10.852Z,21.20
2019-04-30T18:48:40.135Z,22.13
2019-04-30T18:51:23.934Z,22.37
2019-04-30T18:53:40.367Z,21.93
2019-04-30T18:56:14.418Z,21.33
2019-04-30T18:58:43.040Z,22.63
2019-04-30T19:01:11.758Z,23.07
2019-04-30T19:03:40.989Z,23.63
2019-04-30T19:06:22.899Z,22.63
2019-04-30T19:08:52.934Z,22.97
2019-04-30T19:11:33.415Z,26.20
2019-04-30T19:14:24.779Z,26.42
2019-04-30T19:17:29.544Z,25.72
2019-04-30T19:20:21.916Z,26.12
2019-04-30T19:22:52.595Z,26.25
2019-04-30T19:25:22.067Z,26.50
2019-04-30T19:27:51.442Z,27.62
2019-04-30T19:30:22.290Z,26.82
2019-04-30T19:32:52.018Z,26.95
2019-04-30T19:35:22.371Z,27.60
2019-04-30T19:37:51.895Z,28.92
2019-04-30T19:40:21.354Z,28.52
2019-04-30T19:42:50.996Z,28.13
2019-04-30T19:45:20.290Z,29.40
2019-04-30T19:47:52.096Z,29.67
2019-04-30T19:50:21.408Z,29.87
2019-04-30T19:52:51.535Z,30.65
2019-04-30T19:55:20.787Z,31.07
2019-04-30T19:57:54.634Z,30.97
2019-04-30T20:00:23.906Z,28.40
2019-04-30T20:02:53.138Z,28.27
2019-04-30T20:05:23.290Z,28.10
2019-04-30T20:07:52.540Z,27.93
2019-04-30T20:10:22.258Z,32.83
2019-04-30T20:12:52.545Z,34.30
2019-04-30T20:15:24.592Z,34.65
2019-04-30T20:17:53.653Z,35.10
2019-04-30T20:20:23.328Z,33.50
2019-04-30T20:22:53.665Z,34.70
2019-04-30T20:25:24.362Z,33.13
2019-04-30T20:27:53.625Z,33.45
2019-04-30T20:30:22.959Z,34.83
2019-04-30T20:32:52.453Z,33.23
2019-04-30T20:35:23.016Z,33.88
2019-04-30T20:38:31.205Z,32.80
2019-04-30T20:41:03.091Z,32.73
2019-04-30T20:43:31.550Z,34.53
2019-04-30T20:46:01.078Z,32.95
2019-04-30T20:48:30.332Z,34.03
2019-04-30T20:51:01.310Z,34.92
2019-04-30T20:53:30.523Z,34.20
2019-04-30T20:55:59.738Z,34.08
2019-04-30T20:58:30.026Z,34.53
2019-04-30T21:01:03.928Z,35.03
2019-04-30T21:30:46.477Z,29.87
2019-04-30T21:33:31.971Z,37.25
2019-04-30T21:36:14.594Z,36.68
2019-04-30T21:38:43.939Z,37.40
2019-04-30T21:41:13.101Z,36.75
2019-04-30T21:43:42.443Z,36.08
2019-04-30T21:46:11.701Z,34.90
2019-04-30T21:48:40.912Z,36.88
2019-04-30T21:51:10.085Z,36.90
2019-04-30T21:53:39.732Z,36.63
2019-04-30T21:56:10.013Z,37.33
2019-04-30T21:58:39.420Z,36.48
2019-04-30T22:01:21.536Z,35.33
2019-04-30T22:03:50.773Z,35.68
2019-04-30T22:06:20.027Z,35.65
2019-04-30T22:08:49.279Z,35.73
2019-04-30T22:11:19.775Z,34.30
2019-04-30T22:13:49.446Z,34.70
2019-04-30T22:16:20.447Z,34.70
2019-04-30T22:18:49.807Z,34.88
2019-04-30T22:21:19.033Z,35.17
2019-04-30T22:23:48.275Z,36.63
2019-04-30T22:26:17.631Z,37.30
2019-04-30T22:28:46.898Z,36.23
2019-04-30T22:31:16.362Z,37.20
2019-04-30T22:33:45.618Z,37.58
2019-04-30T22:36:34.529Z,37.90
2019-04-30T22:39:14.789Z,37.28
2019-04-30T22:41:43.992Z,37.03
2019-04-30T22:44:13.299Z,35.37
2019-04-30T22:46:42.572Z,34.25
2019-04-30T22:49:11.829Z,35.10
2019-04-30T22:51:41.061Z,34.45
2019-04-30T22:54:10.284Z,35.33
2019-04-30T22:56:39.508Z,35.70
2019-04-30T22:59:08.717Z,35.83
2019-04-30T23:01:53.331Z,36.90
2019-04-30T23:04:30.879Z,35.55
2019-04-30T23:07:00.450Z,34.27
2019-04-30T23:09:29.673Z,35.78
2019-04-30T23:11:58.890Z,35.85
2019-04-30T23:14:28.273Z,36.98
2019-04-30T23:16:57.700Z,36.10
2019-04-30T23:19:26.939Z,36.33
2019-04-30T23:21:56.442Z,37.63
2019-04-30T23:24:25.795Z,36.68
2019-04-30T23:26:55.065Z,36.35
2019-04-30T23:29:24.475Z,36.17
2019-04-30T23:31:53.703Z,34.80
2019-04-30T23:34:22.959Z,36.03
2019-04-30T23:36:52.152Z,37.23
2019-04-30T23:39:21.409Z,35.80
2019-04-30T23:41:50.664Z,37.45
2019-04-30T23:44:19.898Z,38.35
2019-04-30T23:46:49.189Z,37.80
2019-04-30T23:49:18.433Z,38.15
2019-04-30T23:51:50.427Z,37.83
2019-04-30T23:54:20.293Z,37.80
2019-04-30T23:56:49.634Z,37.30
2019-04-30T23:59:18.982Z,37.17
